Flagstaff, Arizona
Current Conditions -  °F | °C
As of 12:57 AM on Tuesday 27 Jan 2015 (Local Time) from KFLG Reporting Station
Overcast Overcast  
Wind Chill: 39°   Ceiling: 4000
Heat Index: 39°   Visibility: 10mi
Dew Point: 28°   Wind: 3mph
Humidity: 65%   Direction: 40°NE
Pressure: 30.31"   Gusts: NA
Location:  35.2°N, 111.65°W
Report Text: KFLG 270757Z AUTO 04003KT 10SM BKN040 OVC060 04/M02 A3031 RMK AO2 SLP216 T00391022 TSNO
Loading
Personal Weather Stations






























Interactive Weather Map New forecast layout! Learn more

10-Day Weather Forecast

Advertisements
Track Severe Weather on mobile